Time;durP1;ratioP1;P1;durP2;ratioP2;P2;SDS_P1;SDS_P2;PMS_P1;PMS_P2;Temp;Humidity;BMP_temperature;BMP_pressure;BME280_temperature;BME280_humidity;BME280_pressure;Samples;Min_cycle;Max_cycle;Signal;HPM_P1;HPM_P2
2021/11/04 00:02:23;;;;;;;6.22;4.18;;;7.40;99.90;;;;;;5073467;28;20017;-88
2021/11/04 00:04:49;;;;;;;8.10;5.25;;;8.00;99.90;;;;;;5084886;28;20032;-88
2021/11/04 00:07:17;;;;;;;6.47;4.70;;;;;;;;;;5076494;28;20032;-87
2021/11/04 00:09:51;;;;;;;8.95;5.05;;;7.50;99.90;;;;;;5072708;28;20028;-90
2021/11/04 00:12:17;;;;;;;13.48;7.75;;;7.40;99.90;;;;;;5070887;28;20111;-87
2021/11/04 00:14:43;;;;;;;15.07;8.27;;;8.50;99.90;;;;;;5072249;28;20063;-88
2021/11/04 00:17:09;;;;;;;8.38;4.75;;;9.40;99.90;;;;;;5076383;28;20029;-86
2021/11/04 00:19:35;;;;;;;6.80;4.95;;;;;;;;;;5077804;28;20027;-90
2021/11/04 00:22:04;;;;;;;9.43;4.65;;;7.50;99.90;;;;;;5072581;28;20103;-89
2021/11/04 00:24:32;;;;;;;7.43;4.85;;;9.80;99.90;;;;;;5080862;28;20021;-86
2021/11/04 00:26:58;;;;;;;9.30;5.28;;;7.50;99.90;;;;;;5069228;28;20029;-88
2021/11/04 00:29:24;;;;;;;6.20;4.60;;;9.70;99.90;;;;;;5069538;28;20035;-87
2021/11/04 00:32:00;;;;;;;9.27;6.25;;;7.30;99.90;;;;;;5084533;28;20017;-86
2021/11/04 00:34:26;;;;;;;10.90;6.22;;;8.70;99.90;;;;;;5091473;28;20080;-87
2021/11/04 00:36:52;;;;;;;9.48;5.40;;;7.80;99.90;;;;;;5089611;28;20024;-85
2021/11/04 00:39:18;;;;;;;6.43;4.88;;;;;;;;;;5087115;28;20028;-85
2021/11/04 00:41:44;;;;;;;6.50;4.57;;;7.50;99.90;;;;;;5085191;28;20031;-87
2021/11/04 00:44:10;;;;;;;6.45;4.43;;;7.90;99.90;;;;;;5080352;28;20028;-87
2021/11/04 00:46:36;;;;;;;6.90;4.40;;;8.00;99.90;;;;;;5077090;28;20040;-87
2021/11/04 00:49:02;;;;;;;5.38;4.10;;;;;;;;;;5069538;28;20130;-87
2021/11/04 00:51:28;;;;;;;6.03;4.43;;;7.60;99.90;;;;;;5077605;28;20482;-86
2021/11/04 00:53:55;;;;;;;7.05;4.18;;;10.40;99.90;;;;;;5074842;28;20037;-87
2021/11/04 00:56:21;;;;;;;6.50;4.60;;;;;;;;;;5073974;28;20025;-87
2021/11/04 00:58:49;;;;;;;6.47;4.53;;;7.60;99.90;;;;;;5081069;28;20128;-85
2021/11/04 01:01:20;;;;;;;7.30;5.13;;;7.50;99.90;;;;;;5074839;28;20029;-89
2021/11/04 01:03:46;;;;;;;7.50;5.30;;;7.50;99.90;;;;;;5075064;28;20020;-87
2021/11/04 01:06:13;;;;;;;7.35;5.10;;;9.20;99.90;;;;;;5073670;28;20035;-87
2021/11/04 01:08:39;;;;;;;8.38;5.40;;;7.50;99.90;;;;;;5077238;28;20087;-90
2021/11/04 01:11:11;;;;;;;7.57;5.05;;;8.30;99.90;;;;;;5072067;28;20138;-90
2021/11/04 01:13:37;;;;;;;8.57;5.30;;;8.20;99.90;;;;;;5071260;28;20167;-86
2021/11/04 01:16:08;;;;;;;7.20;4.82;;;9.40;99.90;;;;;;5075404;28;20032;-88
2021/11/04 01:18:34;;;;;;;7.30;4.95;;;8.60;99.90;;;;;;5073786;28;20033;-86
2021/11/04 01:21:00;;;;;;;7.65;5.07;;;8.20;99.90;;;;;;5072804;28;20051;-87
2021/11/04 01:23:28;;;;;;;8.95;5.22;;;8.70;99.90;;;;;;5072331;28;20033;-87
2021/11/04 01:25:54;;;;;;;7.82;5.18;;;7.80;99.90;;;;;;5069438;28;20028;-88
2021/11/04 01:28:22;;;;;;;14.93;8.60;;;7.60;99.90;;;;;;5072283;28;20515;-87
2021/11/04 01:30:48;;;;;;;6.25;4.72;;;8.60;99.90;;;;;;5075872;28;20055;-84
2021/11/04 01:33:14;;;;;;;7.43;4.85;;;9.00;99.90;;;;;;5077530;28;20030;-91
2021/11/04 01:35:40;;;;;;;8.40;5.03;;;9.40;99.90;;;;;;5071665;28;20116;-87
2021/11/04 01:38:06;;;;;;;8.30;4.95;;;7.20;99.90;;;;;;5072741;28;20060;-89
2021/11/04 01:40:35;;;;;;;9.27;5.28;;;9.80;99.90;;;;;;5076495;28;20028;-88
2021/11/04 01:43:02;;;;;;;7.00;5.07;;;8.70;99.90;;;;;;5075953;28;20024;-90
2021/11/04 01:45:28;;;;;;;7.97;5.63;;;;;;;;;;5076104;28;20024;-88
2021/11/04 01:47:56;;;;;;;9.65;6.60;;;7.80;99.90;;;;;;5074135;28;20105;-88
2021/11/04 01:50:23;;;;;;;13.13;7.03;;;6.50;99.90;;;;;;5067747;28;20025;-88
2021/11/04 01:52:50;;;;;;;11.80;6.80;;;9.40;99.90;;;;;;5073014;28;20033;-88
2021/11/04 01:55:23;;;;;;;9.93;7.63;;;8.60;99.90;;;;;;5068578;28;20032;-88
2021/11/04 01:57:50;;;;;;;11.38;8.25;;;7.70;99.90;;;;;;5076984;28;20092;-89
2021/11/04 02:00:19;;;;;;;11.40;8.00;;;9.80;99.90;;;;;;5072375;28;20101;-87
2021/11/04 02:02:49;;;;;;;11.65;8.27;;;6.00;99.90;;;;;;5065123;28;20021;-87
2021/11/04 02:05:20;;;;;;;11.55;7.90;;;7.40;99.90;;;;;;5074392;28;20032;-87
2021/11/04 02:08:05;;;;;;;;;;;7.70;99.90;;;;;;5076471;28;20040;-85
2021/11/04 02:10:39;;;;;;;10.68;7.30;;;9.20;99.90;;;;;;5066224;28;20607;-87
2021/11/04 02:13:37;;;;;;;13.05;7.78;;;9.30;99.90;;;;;;5069366;28;20037;-88
2021/11/04 02:16:05;;;;;;;10.07;6.82;;;7.60;99.90;;;;;;5052392;28;20513;-88
2021/11/04 02:18:33;;;;;;;9.73;6.38;;;7.60;99.90;;;;;;5075931;28;20036;-86
2021/11/04 02:21:15;;;;;;;10.38;7.13;;;9.70;99.90;;;;;;5068390;28;20035;-86
2021/11/04 02:24:08;;;;;;;9.75;6.80;;;7.50;99.90;;;;;;5073926;28;20024;-86
2021/11/04 02:26:37;;;;;;;11.75;7.00;;;7.40;99.90;;;;;;5073543;28;20031;-88
2021/11/04 02:29:06;;;;;;;9.80;6.63;;;9.60;99.90;;;;;;5072045;28;20037;-87
2021/11/04 02:31:38;;;;;;;11.80;7.45;;;9.80;99.90;;;;;;5073260;28;20051;-86
2021/11/04 02:34:04;;;;;;;12.57;7.40;;;6.10;99.90;;;;;;5076127;28;20052;-82
2021/11/04 02:36:30;;;;;;;12.10;7.57;;;7.50;99.90;;;;;;5087396;28;20032;-87
2021/11/04 02:38:59;;;;;;;14.23;7.45;;;9.90;99.90;;;;;;5084584;28;20012;-89
2021/11/04 02:41:29;;;;;;;10.82;7.05;;;9.60;99.90;;;;;;5094139;28;20027;-87
2021/11/04 02:43:58;;;;;;;14.05;8.50;;;8.90;99.90;;;;;;5086326;28;20044;-89
2021/11/04 02:46:24;;;;;;;14.52;7.60;;;7.50;99.90;;;;;;5082748;28;20009;-86
2021/11/04 02:48:50;;;;;;;14.55;8.27;;;7.60;99.90;;;;;;5083286;28;20021;-88
2021/11/04 02:51:16;;;;;;;12.18;7.90;;;8.70;99.90;;;;;;5070766;28;20401;-85
2021/11/04 02:53:46;;;;;;;13.90;8.77;;;9.30;99.90;;;;;;5074381;28;20115;-90
2021/11/04 02:56:12;;;;;;;13.52;7.97;;;9.20;99.90;;;;;;5065660;28;20017;-84
2021/11/04 02:58:38;;;;;;;11.60;8.00;;;7.40;99.90;;;;;;5071164;28;20039;-86
2021/11/04 03:01:04;;;;;;;11.15;7.22;;;7.50;99.90;;;;;;5072787;28;20021;-86
2021/11/04 03:03:29;;;;;;;12.77;8.07;;;7.30;99.90;;;;;;5068622;28;20021;-86
2021/11/04 03:05:56;;;;;;;10.55;7.45;;;10.10;99.90;;;;;;5072623;28;20688;-82
2021/11/04 03:08:23;;;;;;;12.85;7.93;;;7.70;99.90;;;;;;5082721;28;20160;-85
2021/11/04 03:10:48;;;;;;;11.48;7.43;;;7.90;99.90;;;;;;5071671;28;20477;-86
2021/11/04 03:13:14;;;;;;;11.50;7.20;;;7.70;99.90;;;;;;5074523;28;20086;-89
2021/11/04 03:15:45;;;;;;;11.20;7.45;;;7.80;99.90;;;;;;5072744;28;20025;-87
2021/11/04 03:18:14;;;;;;;11.25;7.38;;;9.90;99.90;;;;;;5068176;28;20032;-87
2021/11/04 03:20:40;;;;;;;13.00;8.25;;;7.40;99.90;;;;;;5083470;28;20021;-87
2021/11/04 03:23:07;;;;;;;12.20;7.50;;;10.20;99.90;;;;;;5077883;28;20112;-85
2021/11/04 03:25:36;;;;;;;14.07;8.27;;;8.30;99.90;;;;;;5076974;28;20486;-88
2021/11/04 03:28:03;;;;;;;12.75;8.38;;;8.40;99.90;;;;;;5074928;28;20056;-89
2021/11/04 03:30:37;;;;;;;12.70;8.73;;;7.70;99.90;;;;;;5076900;28;20042;-86
2021/11/04 03:33:08;;;;;;;14.45;9.45;;;8.90;99.90;;;;;;5077861;28;20028;-87
2021/11/04 03:35:36;;;;;;;22.60;12.05;;;8.80;99.90;;;;;;5070712;28;20036;-86
2021/11/04 03:38:06;;;;;;;15.75;10.02;;;9.40;99.90;;;;;;5068796;28;20032;-86
2021/11/04 03:40:33;;;;;;;19.42;10.88;;;8.30;99.90;;;;;;5075459;28;20032;-88
2021/11/04 03:43:00;;;;;;;23.30;12.90;;;7.90;99.90;;;;;;5073833;28;20028;-87
2021/11/04 03:45:26;;;;;;;22.65;13.15;;;10.00;99.90;;;;;;5071260;28;20025;-89
2021/11/04 03:47:52;;;;;;;24.10;14.23;;;8.10;99.90;;;;;;5071055;28;20049;-89
2021/11/04 03:50:18;;;;;;;25.88;14.27;;;7.80;99.90;;;;;;5070490;28;20196;-86
2021/11/04 03:52:45;;;;;;;23.83;14.60;;;7.80;99.90;;;;;;5071733;28;20479;-88
2021/11/04 03:55:15;;;;;;;25.27;14.45;;;6.40;99.90;;;;;;5069930;28;20561;-85
2021/11/04 03:57:42;;;;;;;27.43;15.50;;;7.70;99.90;;;;;;5070923;28;20135;-87
2021/11/04 04:00:10;;;;;;;27.77;15.95;;;10.40;99.90;;;;;;5065891;28;20020;-90
2021/11/04 04:02:36;;;;;;;30.88;16.60;;;7.70;99.90;;;;;;5069974;28;20024;-88
2021/11/04 04:05:03;;;;;;;29.73;16.67;;;6.70;99.90;;;;;;5073270;28;20021;-88
2021/11/04 04:07:30;;;;;;;29.65;16.80;;;7.70;99.90;;;;;;5074415;28;20053;-86
2021/11/04 04:09:57;;;;;;;29.38;15.50;;;9.00;99.90;;;;;;5073094;28;20032;-88
2021/11/04 04:12:23;;;;;;;29.42;15.60;;;9.00;99.90;;;;;;5091912;28;20024;-88
2021/11/04 04:14:50;;;;;;;28.50;15.73;;;7.10;99.90;;;;;;5072005;28;20504;-86
2021/11/04 04:17:21;;;;;;;28.73;15.70;;;9.80;99.90;;;;;;5073037;28;20078;-89
2021/11/04 04:19:47;;;;;;;;;;;7.70;99.90;;;;;;5071858;28;20020;-88
2021/11/04 04:22:13;;;;;;;31.50;16.25;;;7.60;99.90;;;;;;5071136;28;20358;-88
2021/11/04 04:24:39;;;;;;;30.23;15.57;;;;;;;;;;5068985;28;20051;-89
2021/11/04 04:27:05;;;;;;;33.40;15.82;;;7.70;99.90;;;;;;5072557;28;20037;-86
2021/11/04 04:29:31;;;;;;;30.52;15.95;;;5.80;99.90;;;;;;5069468;28;20028;-86
2021/11/04 04:31:57;;;;;;;29.15;15.77;;;7.60;99.90;;;;;;5071934;28;20028;-87
2021/11/04 04:34:24;;;;;;;33.67;17.20;;;9.60;99.90;;;;;;5086260;28;20485;-85
2021/11/04 04:36:50;;;;;;;31.67;16.35;;;7.70;99.90;;;;;;5070103;28;20524;-87
2021/11/04 04:39:16;;;;;;;27.90;15.50;;;;;;;;;;5073072;28;20028;-88
2021/11/04 04:41:41;;;;;;;31.98;17.52;;;7.70;99.90;;;;;;5071172;28;20028;-88
2021/11/04 04:44:07;;;;;;;33.88;17.08;;;9.10;99.90;;;;;;5074250;28;20043;-88
2021/11/04 04:46:33;;;;;;;27.48;15.55;;;7.50;99.90;;;;;;5074068;28;20025;-88
2021/11/04 04:49:02;;;;;;;29.30;15.60;;;10.00;99.90;;;;;;5069931;28;20051;-87
2021/11/04 04:51:28;;;;;;;30.42;14.82;;;9.10;99.90;;;;;;5074111;28;20024;-86
2021/11/04 04:53:54;;;;;;;28.50;14.93;;;10.70;99.90;;;;;;5075935;28;20045;-89
2021/11/04 04:56:20;;;;;;;29.10;15.40;;;;;;;;;;5065343;28;20580;-87
2021/11/04 04:58:49;;;;;;;28.67;14.30;;;7.80;99.90;;;;;;5062423;28;20029;-86
2021/11/04 05:01:15;;;;;;;27.75;15.25;;;7.80;99.90;;;;;;5068090;28;20334;-87
2021/11/04 05:03:40;;;;;;;26.13;14.07;;;9.80;99.90;;;;;;5091805;28;20556;-88
2021/11/04 05:06:06;;;;;;;30.10;15.75;;;7.80;99.90;;;;;;5074861;28;20028;-89
2021/11/04 05:08:32;;;;;;;27.58;14.77;;;8.70;99.90;;;;;;5076954;28;20025;-87
2021/11/04 05:10:58;;;;;;;27.20;13.77;;;9.50;99.90;;;;;;5074864;28;20213;-86
2021/11/04 05:13:23;;;;;;;30.75;14.38;;;9.40;99.90;;;;;;5068576;28;20032;-88
2021/11/04 05:15:49;;;;;;;26.27;13.73;;;8.30;99.90;;;;;;5069111;28;20038;-89
2021/11/04 05:18:15;;;;;;;23.77;13.35;;;9.70;99.90;;;;;;5070323;28;20032;-87
2021/11/04 05:20:41;;;;;;;25.88;14.63;;;9.30;99.90;;;;;;5074710;28;20028;-88
2021/11/04 05:23:07;;;;;;;26.30;14.40;;;7.90;99.90;;;;;;5072160;28;20052;-86
2021/11/04 05:25:32;;;;;;;25.60;13.55;;;7.70;99.90;;;;;;5075510;28;20112;-85
2021/11/04 05:27:58;;;;;;;25.23;14.35;;;9.50;99.90;;;;;;5074417;28;20096;-87
2021/11/04 05:30:24;;;;;;;25.52;14.45;;;9.50;99.90;;;;;;5069909;28;20062;-86
2021/11/04 05:32:50;;;;;;;27.10;14.95;;;7.80;99.90;;;;;;5074324;28;20020;-85
2021/11/04 05:35:17;;;;;;;25.20;14.45;;;9.90;99.90;;;;;;5070494;28;20103;-83
2021/11/04 05:37:44;;;;;;;26.15;14.82;;;9.70;99.90;;;;;;5072124;28;20394;-85
2021/11/04 05:40:11;;;;;;;26.92;14.07;;;7.60;99.90;;;;;;5073731;28;20086;-86
2021/11/04 05:42:37;;;;;;;28.25;15.15;;;7.60;99.90;;;;;;5073600;28;20032;-87
2021/11/04 05:45:03;;;;;;;26.70;14.48;;;8.60;99.90;;;;;;5074076;28;20501;-87
2021/11/04 05:47:29;;;;;;;26.85;14.57;;;7.60;99.90;;;;;;5073860;28;20505;-89
2021/11/04 05:49:54;;;;;;;29.30;14.82;;;8.40;99.90;;;;;;5066207;28;20055;-86
2021/11/04 05:52:20;;;;;;;26.08;13.80;;;5.70;99.90;;;;;;5072790;28;20059;-88
2021/11/04 05:54:47;;;;;;;29.85;16.38;;;7.40;99.90;;;;;;5070839;28;20028;-84
2021/11/04 05:57:13;;;;;;;27.27;14.57;;;7.60;99.90;;;;;;5067843;28;20028;-86
2021/11/04 05:59:38;;;;;;;28.45;14.60;;;8.10;99.90;;;;;;5069950;28;20670;-88
2021/11/04 06:02:04;;;;;;;26.67;14.57;;;;;;;;;;5067721;28;20039;-85
2021/11/04 06:04:34;;;;;;;28.67;15.82;;;7.60;99.90;;;;;;5071316;28;20047;-88
2021/11/04 06:07:03;;;;;;;26.90;14.55;;;9.30;99.90;;;;;;5071253;28;20032;-84
2021/11/04 06:09:30;;;;;;;31.30;15.57;;;8.90;99.90;;;;;;5085753;28;20056;-89
2021/11/04 06:11:56;;;;;;;31.33;16.38;;;7.50;99.90;;;;;;5076212;28;20032;-87
2021/11/04 06:14:24;;;;;;;30.95;15.75;;;;;;;;;;5090360;28;20008;-85
2021/11/04 06:16:50;;;;;;;40.05;16.52;;;7.60;99.90;;;;;;5090654;28;20052;-87
2021/11/04 06:19:15;;;;;;;30.08;15.50;;;8.00;99.90;;;;;;5088137;28;20067;-86
2021/11/04 06:21:41;;;;;;;28.02;15.52;;;10.10;99.90;;;;;;5087926;28;20029;-84
2021/11/04 06:24:07;;;;;;;28.70;14.18;;;;;;;;;;5089066;28;20029;-84
2021/11/04 06:26:33;;;;;;;25.95;14.13;;;7.70;99.90;;;;;;5088816;28;20043;-88
2021/11/04 06:28:58;;;;;;;29.70;15.48;;;5.60;99.90;;;;;;5087446;28;20025;-86
2021/11/04 06:31:24;;;;;;;29.58;15.23;;;;;;;;;;5085523;28;20024;-86
2021/11/04 06:33:50;;;;;;;32.13;16.30;;;7.60;99.90;;;;;;5082489;28;20501;-85
2021/11/04 06:36:16;;;;;;;33.92;17.05;;;10.30;99.90;;;;;;5074823;28;20037;-86
2021/11/04 06:38:41;;;;;;;31.45;15.75;;;10.60;99.90;;;;;;5075078;28;20032;-85
2021/11/04 06:41:07;;;;;;;32.72;17.65;;;7.60;99.90;;;;;;5071598;28;20128;-88
2021/11/04 06:43:33;;;;;;;32.03;16.55;;;;;;;;;;5063896;28;20020;-84
2021/11/04 06:46:01;;;;;;;30.83;16.30;;;7.70;99.90;;;;;;5073326;28;20025;-86
2021/11/04 06:48:39;;;;;;;29.58;15.43;;;9.40;99.90;;;;;;5079260;28;20052;-83
2021/11/04 06:51:07;;;;;;;29.42;15.73;;;7.80;99.90;;;;;;5073634;28;20049;-85
2021/11/04 06:53:32;;;;;;;31.92;16.30;;;8.70;99.90;;;;;;5074726;28;20043;-86
2021/11/04 06:56:05;;;;;;;30.50;16.30;;;7.70;99.90;;;;;;5078067;28;20032;-84
2021/11/04 06:58:38;;;;;;;28.60;15.85;;;6.20;99.90;;;;;;5075361;28;20025;-84
2021/11/04 07:01:17;;;;;;;28.70;15.70;;;6.30;99.90;;;;;;5071159;28;20054;-85
2021/11/04 07:03:52;;;;;;;34.25;16.67;;;9.50;99.90;;;;;;5090530;28;20028;-87
2021/11/04 07:06:30;;;;;;;29.48;16.42;;;9.40;99.90;;;;;;5073686;28;20024;-85
2021/11/04 07:08:57;;;;;;;28.63;15.82;;;7.60;99.90;;;;;;5074794;28;20020;-85
2021/11/04 07:11:25;;;;;;;31.52;16.70;;;9.60;99.90;;;;;;5073343;28;20288;-87
2021/11/04 07:13:55;;;;;;;29.38;16.05;;;7.80;99.90;;;;;;5077792;28;20055;-85
2021/11/04 07:16:24;;;;;;;32.42;15.73;;;7.80;99.90;;;;;;5068221;28;20028;-88
2021/11/04 07:18:56;;;;;;;30.00;16.48;;;10.60;99.90;;;;;;5077600;28;20047;-86
2021/11/04 07:21:38;;;;;;;31.92;16.77;;;7.80;99.90;;;;;;5086255;28;20138;-87
2021/11/04 07:24:07;;;;;;;31.98;15.95;;;7.80;99.90;;;;;;5084001;28;20033;-86
2021/11/04 07:26:40;;;;;;;27.17;15.25;;;9.70;99.90;;;;;;5071161;28;20036;-87
2021/11/04 07:29:09;;;;;;;30.25;16.27;;;8.90;99.90;;;;;;5071781;28;20028;-83
2021/11/04 07:31:37;;;;;;;31.42;16.73;;;10.20;99.90;;;;;;5075533;28;20044;-84
2021/11/04 07:34:05;;;;;;;26.63;15.75;;;10.20;99.90;;;;;;5070755;28;20324;-87
2021/11/04 07:36:37;;;;;;;29.65;15.30;;;8.20;99.90;;;;;;5073548;28;20021;-86
2021/11/04 07:39:07;;;;;;;32.53;16.58;;;8.70;99.90;;;;;;5076098;28;20048;-87
2021/11/04 07:41:43;;;;;;;28.73;16.27;;;7.80;99.90;;;;;;5078811;28;20016;-86
2021/11/04 07:44:09;;;;;;;26.63;15.00;;;7.80;99.90;;;;;;5072078;28;20050;-87
2021/11/04 07:46:43;;;;;;;30.27;15.70;;;10.00;99.90;;;;;;5078932;28;20863;-89
2021/11/04 07:49:09;;;;;;;30.98;17.70;;;7.90;99.90;;;;;;5080882;28;20024;-88
2021/11/04 07:51:36;;;;;;;24.95;14.80;;;;;;;;;;5070314;28;20017;-85
2021/11/04 07:54:04;;;;;;;27.00;14.88;;;7.90;99.90;;;;;;5081266;28;20039;-86
2021/11/04 07:56:35;;;;;;;27.85;15.32;;;7.80;99.90;;;;;;5074396;28;20196;-89
2021/11/04 07:59:01;;;;;;;26.83;14.93;;;10.80;99.90;;;;;;5071633;28;20037;-85
2021/11/04 08:01:40;;;;;;;23.00;13.80;;;8.00;99.90;;;;;;5073162;28;20040;-89
2021/11/04 08:04:09;;;;;;;29.55;14.52;;;7.60;99.90;;;;;;5078817;28;20028;-89
2021/11/04 08:06:34;;;;;;;29.48;15.40;;;7.90;99.90;;;;;;5078536;28;20017;-86
2021/11/04 08:09:02;;;;;;;29.38;15.70;;;7.90;99.90;;;;;;5078492;28;20097;-89
2021/11/04 08:11:29;;;;;;;25.95;14.75;;;10.60;99.90;;;;;;5078984;28;20024;-86
2021/11/04 08:13:55;;;;;;;25.08;14.40;;;;;;;;;;5079064;28;20017;-85
2021/11/04 08:16:24;;;;;;;25.77;15.43;;;8.10;99.90;;;;;;5076168;28;20016;-86
2021/11/04 08:18:51;;;;;;;26.55;16.08;;;11.10;99.90;;;;;;5076513;28;20033;-86
2021/11/04 08:21:17;;;;;;;29.70;15.23;;;10.80;99.90;;;;;;5067736;28;20020;-84
2021/11/04 08:23:48;;;;;;;26.38;15.05;;;8.30;99.90;;;;;;5074337;28;20028;-87
2021/11/04 08:26:15;;;;;;;26.35;14.45;;;8.20;99.90;;;;;;5074587;28;20058;-87
2021/11/04 08:28:43;;;;;;;25.90;14.23;;;10.80;99.90;;;;;;5073423;28;20029;-89
2021/11/04 08:31:12;;;;;;;25.85;15.50;;;8.30;99.90;;;;;;5079322;28;20072;-87
2021/11/04 08:33:38;;;;;;;29.08;14.95;;;8.70;99.90;;;;;;5073936;28;20038;-88
2021/11/04 08:36:07;;;;;;;25.90;15.30;;;8.70;99.90;;;;;;5081815;28;20148;-88
2021/11/04 08:39:00;;;;;;;27.83;15.40;;;7.80;99.90;;;;;;5076111;28;20025;-90
2021/11/04 08:41:28;;;;;;;27.92;15.38;;;9.20;99.90;;;;;;5092089;28;20024;-88
2021/11/04 08:43:54;;;;;;;29.50;16.67;;;7.90;99.90;;;;;;5085721;28;20028;-86
2021/11/04 08:46:23;;;;;;;29.23;16.67;;;10.10;99.90;;;;;;5078386;28;20116;-88
2021/11/04 08:48:49;;;;;;;29.30;16.77;;;10.20;99.90;;;;;;5075055;28;20024;-86
2021/11/04 08:51:20;;;;;;;27.75;16.80;;;8.20;99.90;;;;;;5078940;28;20036;-87
2021/11/04 08:53:49;;;;;;;25.77;16.13;;;7.00;99.90;;;;;;5074850;28;20032;-88
2021/11/04 08:56:17;;;;;;;32.55;17.60;;;8.30;99.90;;;;;;5073876;28;20021;-86
2021/11/04 08:58:43;;;;;;;32.78;18.50;;;9.40;99.90;;;;;;5069099;28;20029;-87
2021/11/04 09:01:09;;;;;;;28.63;16.98;;;;;;;;;;5065365;28;20426;-85
2021/11/04 09:03:35;;;;;;;37.97;18.50;;;8.40;99.90;;;;;;5071287;28;20028;-86
2021/11/04 09:06:03;;;;;;;29.30;16.73;;;10.00;99.90;;;;;;5073404;28;20029;-87
2021/11/04 09:08:31;;;;;;;25.92;15.15;;;8.50;99.90;;;;;;5073092;28;20025;-88
2021/11/04 09:10:58;;;;;;;27.55;15.45;;;9.10;99.90;;;;;;5075363;28;20036;-89
2021/11/04 09:13:26;;;;;;;25.00;14.68;;;10.90;99.90;;;;;;5092040;28;20025;-90
2021/11/04 09:15:52;;;;;;;27.05;15.52;;;7.20;99.90;;;;;;5072117;28;20034;-90
2021/11/04 09:18:19;;;;;;;28.30;15.70;;;8.70;99.90;;;;;;5075217;28;20063;-89
2021/11/04 09:20:49;;;;;;;26.58;15.23;;;10.60;99.90;;;;;;5075151;28;20041;-88
2021/11/04 09:23:17;;;;;;;24.92;15.55;;;8.50;99.90;;;;;;5077782;28;20051;-90
2021/11/04 09:25:43;;;;;;;27.75;15.55;;;8.60;99.90;;;;;;5073502;28;20021;-90
2021/11/04 09:28:09;;;;;;;25.15;16.02;;;7.70;99.90;;;;;;5073625;28;20040;-87
2021/11/04 09:30:35;;;;;;;25.63;15.00;;;11.30;99.90;;;;;;5074372;28;20033;-88
2021/11/04 09:33:01;;;;;;;24.88;14.65;;;8.60;99.90;;;;;;5072198;28;21030;-90
2021/11/04 09:35:26;;;;;;;27.23;16.08;;;8.70;99.90;;;;;;5075342;28;20028;-90
2021/11/04 09:37:53;;;;;;;24.08;14.45;;;7.40;99.90;;;;;;5072253;28;20024;-89
2021/11/04 09:40:19;;;;;;;25.45;15.65;;;10.90;99.90;;;;;;5077686;28;20029;-86
2021/11/04 09:42:47;;;;;;;25.20;15.60;;;10.80;99.90;;;;;;5072810;28;20035;-88
2021/11/04 09:45:13;;;;;;;25.48;15.23;;;8.70;99.90;;;;;;5071568;28;20107;-88
2021/11/04 09:47:39;;;;;;;24.63;14.38;;;8.60;99.90;;;;;;5073217;28;20093;-89
2021/11/04 09:50:08;;;;;;;23.50;14.85;;;10.70;99.90;;;;;;5072565;28;20652;-85
2021/11/04 09:52:35;;;;;;;23.08;14.63;;;8.60;99.90;;;;;;5073220;28;20080;-87
2021/11/04 09:55:08;;;;;;;21.27;14.30;;;9.90;99.90;;;;;;5068313;28;20028;-86
2021/11/04 09:57:34;;;;;;;23.55;14.20;;;6.90;99.90;;;;;;5065744;28;20029;-88
2021/11/04 10:00:00;;;;;;;23.65;14.57;;;8.50;99.90;;;;;;5068205;28;20021;-88
2021/11/04 10:02:28;;;;;;;22.20;13.35;;;9.20;99.90;;;;;;5069950;28;20028;-88
2021/11/04 10:05:05;;;;;;;23.17;14.30;;;8.60;99.90;;;;;;5069192;28;20110;-86
2021/11/04 10:07:43;;;;;;;23.77;14.23;;;10.10;99.90;;;;;;5072512;28;20071;-88
2021/11/04 10:10:10;;;;;;;21.25;12.88;;;10.00;99.90;;;;;;5068924;28;20462;-83
2021/11/04 10:12:36;;;;;;;21.17;13.45;;;8.50;99.90;;;;;;5075074;28;20085;-91
2021/11/04 10:15:16;;;;;;;20.85;12.32;;;8.60;99.90;;;;;;5073666;28;20028;-89
2021/11/04 10:17:42;;;;;;;22.38;11.98;;;9.70;99.90;;;;;;5085533;28;20063;-89
2021/11/04 10:20:28;;;;;;;21.58;12.27;;;9.80;99.90;;;;;;5075327;28;20040;-87
2021/11/04 10:23:06;;;;;;;19.02;11.60;;;8.60;99.90;;;;;;5079373;28;20020;-86
2021/11/04 10:25:35;;;;;;;21.48;12.20;;;8.50;99.90;;;;;;5077028;28;20066;-91
2021/11/04 10:28:25;;;;;;;22.77;13.20;;;8.50;99.90;;;;;;5070635;28;20029;-87
2021/11/04 10:30:54;;;;;;;19.92;12.05;;;8.50;99.90;;;;;;5072949;28;20025;-89
2021/11/04 10:33:28;;;;;;;18.52;11.23;;;8.60;99.90;;;;;;5074536;28;20035;-88
2021/11/04 10:36:03;;;;;;;21.58;13.15;;;11.00;99.90;;;;;;5075543;28;20070;-89
2021/11/04 10:38:50;;;;;;;22.95;12.73;;;8.60;99.90;;;;;;5080126;28;20033;-89
2021/11/04 10:41:43;;;;;;;19.77;11.35;;;8.80;99.90;;;;;;5068678;28;20029;-86
2021/11/04 10:44:38;;;;;;;23.58;12.10;;;8.70;99.90;;;;;;5080676;28;20108;-89
2021/11/04 10:47:15;;;;;;;;;;;;;;;;;;;;;
2021/11/04 10:50:10;;;;;;;21.65;11.40;;;8.60;99.90;;;;;;5078442;28;20093;-89
2021/11/04 10:52:39;;;;;;;20.27;11.07;;;9.80;99.90;;;;;;5079617;28;20021;-87
2021/11/04 10:55:16;;;;;;;20.83;10.88;;;8.80;99.90;;;;;;5077510;28;20460;-89
2021/11/04 10:57:42;;;;;;;18.75;10.82;;;10.30;99.90;;;;;;5070909;28;20032;-86
2021/11/04 11:00:21;;;;;;;17.25;10.15;;;7.20;99.90;;;;;;5074958;28;20033;-88
2021/11/04 11:03:06;;;;;;;19.02;11.27;;;9.00;99.90;;;;;;5071774;28;20051;-88
2021/11/04 11:05:40;;;;;;;15.07;9.65;;;8.90;99.90;;;;;;5075796;28;20034;-89
2021/11/04 11:08:08;;;;;;;17.80;10.32;;;8.80;99.90;;;;;;5092017;28;20028;-89
2021/11/04 11:10:40;;;;;;;17.98;11.23;;;9.20;99.90;;;;;;5073528;28;20024;-89
2021/11/04 11:13:07;;;;;;;16.80;9.88;;;9.20;99.90;;;;;;5072503;28;20033;-86
2021/11/04 11:15:36;;;;;;;16.80;9.45;;;10.50;99.90;;;;;;5071499;28;20029;-88
2021/11/04 11:18:07;;;;;;;16.35;9.73;;;9.30;99.90;;;;;;5102720;28;20020;-87
2021/11/04 11:20:48;;;;;;;15.77;8.98;;;9.40;99.90;;;;;;5086934;28;20028;-86
2021/11/04 11:23:30;;;;;;;14.05;9.43;;;11.30;99.90;;;;;;5088652;28;20020;-89
2021/11/04 11:26:01;;;;;;;17.70;10.30;;;9.50;99.90;;;;;;5088626;28;20025;-88
2021/11/04 11:28:40;;;;;;;15.73;8.65;;;9.40;99.90;;;;;;5083716;28;20064;-89
2021/11/04 11:31:14;;;;;;;14.88;9.05;;;11.60;99.90;;;;;;5079703;28;20028;-86
2021/11/04 11:34:03;;;;;;;31.15;11.55;;;10.10;99.90;;;;;;5084434;28;20029;-85
2021/11/04 11:36:39;;;;;;;17.13;10.35;;;9.60;99.90;;;;;;5076062;28;20032;-86
2021/11/04 11:39:14;;;;;;;15.90;9.90;;;10.70;99.90;;;;;;5076647;28;20051;-84
2021/11/04 11:41:58;;;;;;;16.55;9.32;;;9.40;99.90;;;;;;5076616;28;20119;-84
2021/11/04 11:44:40;;;;;;;13.63;8.95;;;9.20;99.90;;;;;;5086213;28;20028;-88
2021/11/04 11:47:25;;;;;;;15.30;8.75;;;7.80;99.90;;;;;;5090764;28;20037;-85
2021/11/04 11:50:32;;;;;;;15.02;9.85;;;9.30;99.90;;;;;;5078898;28;20020;-86
2021/11/04 11:53:05;;;;;;;19.15;11.90;;;9.50;99.90;;;;;;5050296;28;20040;-85
2021/11/04 11:55:43;;;;;;;15.35;8.90;;;9.30;99.90;;;;;;5081614;28;20398;-88
2021/11/04 11:58:22;;;;;;;14.93;8.80;;;9.50;99.90;;;;;;5080025;28;20029;-84
2021/11/04 12:00:54;;;;;;;16.13;8.55;;;11.70;99.90;;;;;;5078686;28;20067;-83
2021/11/04 12:03:36;;;;;;;14.55;8.98;;;9.50;99.90;;;;;;5076688;28;20029;-91
2021/11/04 12:06:08;;;;;;;15.18;9.18;;;9.30;99.90;;;;;;5082432;28;20029;-87
2021/11/04 12:08:46;;;;;;;15.27;9.70;;;10.10;99.90;;;;;;5098095;28;20112;-90
2021/11/04 12:11:35;;;;;;;17.08;9.27;;;9.30;99.90;;;;;;5079951;28;20045;-88
2021/11/04 12:14:26;;;;;;;14.40;9.15;;;7.80;99.90;;;;;;5092074;28;20039;-89
2021/11/04 12:17:05;;;;;;;13.18;8.55;;;9.30;99.90;;;;;;5079018;28;20024;-89
2021/11/04 12:19:52;;;;;;;15.32;9.05;;;9.20;99.90;;;;;;5075790;28;20029;-89
2021/11/04 12:22:17;;;;;;;13.40;8.57;;;11.30;99.90;;;;;;5074607;28;20029;-89
2021/11/04 12:24:59;;;;;;;13.18;9.32;;;9.20;99.90;;;;;;5074111;28;20509;-84
2021/11/04 12:27:59;;;;;;;11.30;7.82;;;9.30;99.90;;;;;;5076949;28;20040;-84
2021/11/04 12:30:27;;;;;;;13.15;7.80;;;10.00;99.90;;;;;;5077211;28;20032;-86
2021/11/04 12:33:08;;;;;;;14.18;6.93;;;9.20;99.90;;;;;;5094784;28;20108;-87
2021/11/04 12:35:59;;;;;;;11.32;7.30;;;9.20;99.90;;;;;;5081344;28;20092;-88
2021/11/04 12:38:38;;;;;;;13.32;8.30;;;;;;;;;;5069336;28;20032;-88
2021/11/04 12:41:08;;;;;;;16.10;7.85;;;9.20;99.90;;;;;;5076789;28;20033;-85
2021/11/04 12:43:35;;;;;;;10.55;7.18;;;;;;;;;;5081252;28;20432;-86
2021/11/04 12:46:19;;;;;;;11.77;7.15;;;9.10;99.90;;;;;;5079993;28;20466;-87
2021/11/04 12:49:05;;;;;;;13.85;8.63;;;9.10;99.90;;;;;;5078172;28;20020;-88
2021/11/04 12:51:50;;;;;;;12.85;8.35;;;9.20;99.90;;;;;;5076894;28;20032;-89
2021/11/04 12:54:21;;;;;;;13.13;7.47;;;9.20;99.90;;;;;;5075461;28;20036;-89
2021/11/04 12:57:03;;;;;;;10.57;7.43;;;8.40;99.90;;;;;;5073457;28;20028;-88
2021/11/04 12:59:41;;;;;;;9.57;6.80;;;10.30;99.90;;;;;;5071500;28;20094;-87
2021/11/04 13:02:25;;;;;;;10.18;6.32;;;10.10;99.90;;;;;;5077478;28;20021;-89
2021/11/04 13:05:16;;;;;;;13.73;6.50;;;10.20;99.90;;;;;;5073658;28;20032;-90